Terminal Aerodrome Forecast
Issued by NWS

Home | Current Version | Previous Version | Text Only | Print | Product List | Glossary Off
Versions: 1 2 3 4 5 6 7 8 9 10 11 12 13 14 15 16

000
FTUS43 KGRB 080520
TAFATW
TAF
KATW 080520Z 0806/0906 26015G25KT P6SM -SN OVC025
     FM090000 30011G18KT P6SM -SN BKN028=

USA.gov is the U.S. government's official web portal to all federal, state and local government web resources and services.